Time;durP1;ratioP1;P1;durP2;ratioP2;P2;SDS_P1;SDS_P2;PMS_P1;PMS_P2;Temp;Humidity;BMP_temperature;BMP_pressure;BME280_temperature;BME280_humidity;BME280_pressure;Samples;Min_cycle;Max_cycle;Signal;HPM_P1;HPM_P2
2022/02/14 00:00:50;;;;;;;;;7.33;6.00;;;;;11.33;70.59;99658.47;5100476;27;45326;-75
2022/02/14 00:03:16;;;;;;;;;7.00;6.00;;;;;11.17;70.68;99645.59;5082314;27;45441;-75
2022/02/14 00:05:41;;;;;;;;;8.00;6.33;;;;;11.17;71.10;99661.53;5100264;27;45391;-74
2022/02/14 00:08:07;;;;;;;;;5.00;5.00;;;;;10.99;71.41;99634.53;5100321;27;45628;-76
2022/02/14 00:10:33;;;;;;;;;7.00;7.00;;;;;10.94;72.06;99623.69;5100627;27;45942;-75
2022/02/14 00:12:58;;;;;;;;;5.00;5.00;;;;;10.90;73.41;99630.44;5100228;27;45274;-75
2022/02/14 00:15:24;;;;;;;;;5.67;5.67;;;;;10.82;73.15;99612.03;5081752;27;45346;-74
2022/02/14 00:17:49;;;;;;;;;7.67;7.00;;;;;10.78;73.52;99614.28;5099791;27;45480;-75
2022/02/14 00:20:15;;;;;;;;;5.33;5.33;;;;;10.75;74.02;99620.00;5100333;27;46031;-75
2022/02/14 00:22:41;;;;;;;;;6.67;6.67;;;;;10.71;75.24;99621.41;5085057;27;45170;-75
2022/02/14 00:25:07;;;;;;;;;6.67;6.00;;;;;10.62;74.22;99614.69;5085207;27;45450;-76
2022/02/14 00:27:33;;;;;;;;;5.67;5.33;;;;;10.65;74.51;99625.72;5084829;27;46255;-75
2022/02/14 00:29:59;;;;;;;;;9.67;8.00;;;;;10.60;74.65;99612.22;5103185;27;46205;-74
2022/02/14 00:32:24;;;;;;;;;6.00;6.00;;;;;10.51;75.07;99594.84;5103419;27;45232;-74
2022/02/14 00:34:51;;;;;;;;;5.00;5.00;;;;;10.53;75.70;99593.59;5103359;27;45231;-75
2022/02/14 00:37:17;;;;;;;;;6.33;6.33;;;;;10.54;75.74;99603.19;5103084;27;45318;-74
2022/02/14 00:39:43;;;;;;;;;8.67;6.33;;;;;10.56;75.39;99605.66;5103072;27;45321;-74
2022/02/14 00:42:08;;;;;;;;;5.00;5.00;;;;;10.40;75.92;99589.06;5103115;27;45308;-74
2022/02/14 00:44:34;;;;;;;;;5.33;5.33;;;;;10.53;75.56;99608.75;5103466;27;45243;-74
2022/02/14 00:46:59;;;;;;;;;5.67;5.67;;;;;10.45;75.90;99578.66;5084704;27;46949;-75
2022/02/14 00:49:25;;;;;;;;;5.67;5.00;;;;;10.49;75.92;99589.72;5102974;27;46029;-75
2022/02/14 00:51:50;;;;;;;;;8.00;7.33;;;;;10.43;75.87;99578.03;5102988;27;45329;-74
2022/02/14 00:54:15;;;;;;;;;8.00;5.67;;;;;10.53;75.87;99598.13;5103024;27;45259;-74
2022/02/14 00:56:41;;;;;;;;;5.00;5.00;;;;;10.48;75.82;99580.91;5103074;27;45379;-75
2022/02/14 00:59:06;;;;;;;;;5.67;5.00;;;;;10.47;75.51;99570.50;5102996;27;45258;-74
2022/02/14 01:01:32;;;;;;;;;5.33;5.33;;;;;10.46;76.08;99567.03;5102959;27;45247;-74
2022/02/14 01:03:57;;;;;;;;;6.67;6.67;;;;;10.57;75.74;99578.09;5103080;27;45471;-74
2022/02/14 01:06:25;;;;;;;;;3.00;3.00;;;;;10.55;75.28;99562.34;5102772;27;45294;-74
2022/02/14 01:08:51;;;;;;;;;11.67;11.67;;;;;10.59;75.13;99560.91;5102828;27;46713;-75
2022/02/14 01:11:17;;;;;;;;;6.33;5.00;;;;;10.64;75.14;99567.44;5102697;27;45389;-75
2022/02/14 01:13:42;;;;;;;;;6.00;6.00;;;;;10.60;75.01;99551.91;5084378;27;45443;-74
2022/02/14 01:16:08;;;;;;;;;7.00;5.33;;;;;10.70;74.78;99561.31;5084439;27;47220;-74
2022/02/14 01:18:33;;;;;;;;;5.00;4.67;;;;;10.53;75.12;99534.34;5102523;27;45613;-75
2022/02/14 01:20:58;;;;;;;;;7.00;7.00;;;;;10.64;74.58;99546.19;5102622;27;45268;-75
2022/02/14 01:23:24;;;;;;;;;7.00;6.00;;;;;10.67;74.48;99543.97;5102830;27;45194;-74
2022/02/14 01:25:49;;;;;;;;;6.00;6.00;;;;;10.77;74.57;99556.03;5084423;27;47058;-74
2022/02/14 01:28:15;;;;;;;;;5.67;5.67;;;;;10.68;74.56;99542.09;5102483;27;45551;-75
2022/02/14 01:30:40;;;;;;;;;7.33;7.33;;;;;10.80;74.37;99551.09;5102624;27;45305;-74
2022/02/14 01:33:05;;;;;;;;;6.67;6.67;;;;;10.80;73.83;99544.97;5101765;27;45259;-76
2022/02/14 01:35:31;;;;;;;;;6.33;5.67;;;;;10.85;73.97;99539.84;5102206;27;45261;-75
2022/02/14 01:37:56;;;;;;;;;6.33;6.33;;;;;10.89;74.17;99542.94;5102554;27;45464;-75
2022/02/14 01:40:23;;;;;;;;;4.00;4.00;;;;;10.86;74.16;99531.69;5102265;27;45173;-76
2022/02/14 01:42:48;;;;;;;;;7.33;7.33;;;;;10.81;74.22;99534.13;5102387;27;45441;-74
2022/02/14 01:45:14;;;;;;;;;5.00;5.00;;;;;10.94;73.88;99546.59;5102444;27;45560;-75
2022/02/14 01:47:40;;;;;;;;;3.00;3.00;;;;;10.81;73.85;99520.84;5102657;27;46033;-75
2022/02/14 01:50:08;;;;;;;;;8.67;6.00;;;;;10.97;73.72;99537.41;5102985;27;45322;-75
2022/02/14 01:52:35;;;;;;;;;6.00;6.00;;;;;10.95;73.59;99526.97;5103046;27;45310;-75
2022/02/14 01:55:02;;;;;;;;;5.00;5.00;;;;;10.93;73.61;99529.00;5102901;27;45161;-75
2022/02/14 01:57:27;;;;;;;;;5.67;4.67;;;;;10.96;73.58;99520.63;5085377;27;48396;-75
2022/02/14 01:59:53;;;;;;;;;8.00;6.67;;;;;10.96;74.00;99520.63;5085643;27;45306;-75
2022/02/14 02:02:18;;;;;;;;;5.00;4.00;;;;;11.04;73.33;99524.09;5104664;27;45338;-75
2022/02/14 02:04:45;;;;;;;;;6.33;6.00;;;;;11.10;73.32;99531.22;5085275;27;45964;-76
2022/02/14 02:07:12;;;;;;;;;6.33;6.33;;;;;10.94;73.04;99497.94;5103458;27;45412;-75
2022/02/14 02:09:38;;;;;;;;;5.67;5.67;;;;;11.06;73.37;99514.06;5102724;27;45366;-75
2022/02/14 02:12:25;;;;;;;;;6.00;6.00;;;;;11.10;73.24;99517.94;5085742;27;45332;-75
2022/02/14 02:14:55;;;;;;;;;6.00;5.00;;;;;11.17;73.16;99516.09;5102565;27;45240;-75
2022/02/14 02:17:23;;;;;;;;;7.67;5.00;;;;;11.11;73.17;99511.63;5102448;27;45401;-75
2022/02/14 02:19:48;;;;;;;;;6.33;6.00;;;;;11.10;73.44;99496.66;5083802;27;45837;-76
2022/02/14 02:22:14;;;;;;;;;8.67;7.67;;;;;11.13;72.94;99490.94;5103119;27;45202;-75
2022/02/14 02:24:46;;;;;;;;;7.00;6.67;;;;;11.22;73.32;99510.13;5102493;27;45203;-75
2022/02/14 02:27:13;;;;;;;;;7.00;6.00;;;;;11.22;73.04;99505.63;5102473;27;45334;-75
2022/02/14 02:29:39;;;;;;;;;6.33;6.33;;;;;11.23;73.29;99515.25;5102275;27;45355;-75
2022/02/14 02:32:06;;;;;;;;;6.67;6.67;;;;;11.21;73.66;99509.34;5103292;27;45198;-75
2022/02/14 02:34:34;;;;;;;;;7.67;6.00;;;;;11.18;73.55;99498.28;5101505;27;45282;-76
2022/02/14 02:36:59;;;;;;;;;8.33;7.00;;;;;11.21;73.13;99498.69;5083187;27;47383;-75
2022/02/14 02:39:26;;;;;;;;;6.67;6.67;;;;;11.28;73.28;99498.66;5101607;27;45242;-75
2022/02/14 02:41:51;;;;;;;;;10.00;8.33;;;;;11.28;73.13;99508.50;5102288;27;45444;-75
2022/02/14 02:44:18;;;;;;;;;4.67;4.67;;;;;11.32;73.30;99502.53;5101782;27;45322;-75
2022/02/14 02:46:44;;;;;;;;;6.33;6.33;;;;;11.26;73.49;99497.25;5101467;27;45321;-75
2022/02/14 02:49:14;;;;;;;;;6.33;6.33;;;;;11.30;73.61;99504.59;5083175;27;45334;-74
2022/02/14 02:51:42;;;;;;;;;7.67;6.67;;;;;11.30;73.36;99504.59;5101914;27;45371;-75
2022/02/14 02:54:08;;;;;;;;;5.00;5.00;;;;;11.21;73.50;99484.56;5083759;27;46576;-75
2022/02/14 02:56:35;;;;;;;;;6.67;6.00;;;;;11.34;73.77;99510.31;5102158;27;46179;-75
2022/02/14 02:59:00;;;;;;;;;7.33;7.33;;;;;11.37;73.61;99512.53;5083405;27;45306;-75
2022/02/14 03:01:26;;;;;;;;;7.00;6.33;;;;;11.36;73.70;99501.09;5082871;27;45264;-75
2022/02/14 03:03:53;;;;;;;;;6.33;6.33;;;;;11.25;73.87;99477.81;5101256;27;45468;-74
2022/02/14 03:06:19;;;;;;;;;6.67;6.67;;;;;11.24;73.70;99479.66;5101938;27;45341;-75
2022/02/14 03:08:45;;;;;;;;;8.00;7.00;;;;;11.22;74.02;99471.06;5082841;27;45387;-76
2022/02/14 03:11:10;;;;;;;;;7.00;6.00;;;;;11.20;74.16;99478.44;5101198;27;45348;-75
2022/02/14 03:13:36;;;;;;;;;6.67;6.00;;;;;11.27;73.94;99469.63;5101118;27;45474;-74
2022/02/14 03:16:01;;;;;;;;;6.33;6.33;;;;;11.26;74.14;99475.97;5100952;27;45349;-75
2022/02/14 03:18:27;;;;;;;;;9.00;7.33;;;;;11.29;74.16;99483.53;5100868;27;45334;-75
2022/02/14 03:20:52;;;;;;;;;7.00;6.00;;;;;11.32;74.33;99485.78;5101640;27;45735;-75
2022/02/14 03:23:17;;;;;;;;;5.33;4.67;;;;;11.28;74.25;99465.94;5101374;27;45375;-76
2022/02/14 03:25:42;;;;;;;;;5.33;5.33;;;;;11.24;74.27;99463.72;5082643;27;48341;-75
2022/02/14 03:28:08;;;;;;;;;6.00;6.00;;;;;11.39;74.66;99473.25;5100429;27;45404;-75
2022/02/14 03:30:33;;;;;;;;;6.00;6.00;;;;;11.39;74.21;99473.25;5101015;27;45304;-75
2022/02/14 03:32:59;;;;;;;;;7.67;7.33;;;;;11.40;74.60;99484.72;5100846;27;45215;-75
2022/02/14 03:35:24;;;;;;;;;6.00;4.67;;;;;11.33;74.90;99474.09;5100581;27;46302;-76
2022/02/14 03:37:49;;;;;;;;;7.00;7.00;;;;;11.41;75.63;99489.84;5100383;27;45254;-75
2022/02/14 03:40:15;;;;;;;;;1.00;0.00;;;;;11.41;76.00;99489.00;5101476;27;45282;-75
2022/02/14 03:42:40;;;;;;;;;7.33;6.33;;;;;11.41;76.09;99491.69;5100875;27;45217;-76
2022/02/14 03:45:06;;;;;;;;;8.33;6.00;;;;;11.33;76.88;99477.59;5082721;27;48192;-75
2022/02/14 03:47:32;;;;;;;;;7.00;6.67;;;;;11.28;77.19;99482.72;5100951;27;45220;-75
2022/02/14 03:49:57;;;;;;;;;6.33;6.33;;;;;11.30;78.37;99509.91;5101212;27;45287;-76
2022/02/14 03:52:22;;;;;;;;;5.00;5.00;;;;;11.15;79.29;99499.53;5101659;27;45233;-75
2022/02/14 03:54:48;;;;;;;;;4.33;4.00;;;;;11.10;79.16;99500.16;5099597;27;46286;-75
2022/02/14 03:57:13;;;;;;;;;5.00;5.00;;;;;11.05;79.33;99496.47;5100390;27;45533;-75
2022/02/14 03:59:40;;;;;;;;;4.67;4.67;;;;;11.00;79.70;99489.13;5100555;27;45363;-75
2022/02/14 04:02:06;;;;;;;;;6.00;6.00;;;;;10.99;79.56;99490.16;5100304;27;45477;-75
2022/02/14 04:04:31;;;;;;;;;4.00;3.00;;;;;10.95;79.78;99505.69;5099887;27;45338;-76
2022/02/14 04:06:56;;;;;;;;;4.00;4.00;;;;;10.97;80.08;99506.31;5082628;27;45338;-75
2022/02/14 04:09:22;;;;;;;;;4.00;4.00;;;;;10.87;80.64;99503.28;5103278;27;45267;-75
2022/02/14 04:11:47;;;;;;;;;4.67;4.67;;;;;10.96;81.35;99528.59;5085759;27;46540;-75
2022/02/14 04:14:12;;;;;;;;;4.33;4.33;;;;;10.91;81.41;99520.44;5104401;27;45297;-75
2022/02/14 04:16:38;;;;;;;;;3.00;3.00;;;;;10.94;80.98;99538.63;5101886;27;45246;-75
2022/02/14 04:19:03;;;;;;;;;4.00;4.00;;;;;10.83;81.71;99528.59;5101303;27;46543;-75
2022/02/14 04:21:29;;;;;;;;;4.33;4.00;;;;;10.82;81.54;99541.09;5100473;27;45240;-75
2022/02/14 04:23:54;;;;;;;;;4.00;4.00;;;;;10.77;81.69;99545.41;5082768;27;47484;-74
2022/02/14 04:26:20;;;;;;;;;3.67;3.67;;;;;10.67;81.79;99533.34;5101585;27;45162;-75
2022/02/14 04:28:45;;;;;;;;;5.33;4.00;;;;;10.72;82.03;99552.13;5082000;27;45225;-75
2022/02/14 04:31:10;;;;;;;;;6.00;4.00;;;;;10.62;81.84;99535.78;5101342;27;45427;-74
2022/02/14 04:33:36;;;;;;;;;5.00;4.00;;;;;10.60;81.66;99551.13;5101161;27;45807;-74
2022/02/14 04:36:01;;;;;;;;;2.67;2.33;;;;;10.48;81.86;99557.00;5100035;27;45219;-75
2022/02/14 04:38:26;;;;;;;;;4.00;4.00;;;;;10.53;82.49;99590.94;5101668;27;45217;-76
2022/02/14 04:40:52;;;;;;;;;0.67;0.67;;;;;10.56;81.79;99621.59;5084618;27;46123;-75
2022/02/14 04:43:17;;;;;;;;;0.33;0.00;;;;;10.45;80.44;99626.47;5102230;27;46203;-75
2022/02/14 04:45:42;;;;;;;;;0.00;0.00;;;;;10.24;79.95;99616.81;5102237;27;45164;-75
2022/02/14 04:48:08;;;;;;;;;2.00;1.33;;;;;10.18;79.92;99633.53;5104184;27;45428;-75
2022/02/14 04:50:33;;;;;;;;;0.00;0.00;;;;;10.03;79.20;99633.69;5102858;27;45370;-75
2022/02/14 04:52:58;;;;;;;;;0.00;0.00;;;;;10.00;79.25;99647.34;5101979;27;46690;-75
2022/02/14 04:55:24;;;;;;;;;0.00;0.00;;;;;9.90;79.12;99650.34;5102037;27;45381;-75
2022/02/14 04:57:50;;;;;;;;;0.00;0.00;;;;;9.86;78.90;99663.22;5100949;27;45382;-75
2022/02/14 05:00:16;;;;;;;;;0.00;0.00;;;;;9.84;78.75;99670.53;5098780;27;45324;-75
2022/02/14 05:02:43;;;;;;;;;0.00;0.00;;;;;9.79;78.44;99673.78;5093385;27;47162;-76
2022/02/14 05:05:09;;;;;;;;;0.67;0.00;;;;;9.69;78.33;99668.81;5069135;28;45289;-75
2022/02/14 05:07:35;;;;;;;;;0.00;0.00;;;;;9.63;78.45;99661.63;5088459;28;45213;-76
2022/02/14 05:10:00;;;;;;;;;1.00;0.00;;;;;9.65;78.77;99683.50;5077034;27;46950;-75
2022/02/14 05:12:25;;;;;;;;;0.00;0.00;;;;;9.68;78.84;99691.06;5117593;27;46111;-76
2022/02/14 05:14:51;;;;;;;;;0.00;0.00;;;;;9.64;78.72;99697.75;5119468;27;45149;-76
2022/02/14 05:17:16;;;;;;;;;0.67;0.00;;;;;9.59;78.65;99685.09;5122379;27;45272;-76
2022/02/14 05:19:41;;;;;;;;;0.00;0.00;;;;;9.52;78.50;99686.06;5125119;27;44803;-76
2022/02/14 05:22:07;;;;;;;;;0.33;0.33;;;;;9.64;78.72;99708.38;5126888;27;45604;-76
2022/02/14 05:24:32;;;;;;;;;0.00;0.00;;;;;9.50;78.54;99701.34;5124557;27;45399;-76
2022/02/14 05:26:58;;;;;;;;;0.00;0.00;;;;;9.54;78.34;99714.03;5123168;27;44655;-76
2022/02/14 05:29:24;;;;;;;;;0.00;0.00;;;;;9.53;78.08;99728.31;5120750;27;44826;-76
2022/02/14 05:31:50;;;;;;;;;0.00;0.00;;;;;9.50;77.96;99730.50;5117780;27;45387;-74
2022/02/14 05:34:15;;;;;;;;;0.00;0.00;;;;;9.50;78.11;99739.31;5119796;27;44748;-75
2022/02/14 05:36:41;;;;;;;;;0.00;0.00;;;;;9.45;78.26;99741.69;5119805;27;44696;-75
2022/02/14 05:39:08;;;;;;;;;0.00;0.00;;;;;9.42;78.10;99745.56;5131211;27;44776;-76
2022/02/14 05:41:33;;;;;;;;;0.00;0.00;;;;;9.44;78.39;99755.97;5140549;27;46281;-76
2022/02/14 05:44:01;;;;;;;;;0.00;0.00;;;;;9.43;78.01;99754.34;5120880;27;45197;-75
2022/02/14 05:46:30;;;;;;;;;0.00;0.00;;;;;9.47;78.37;99768.84;5133490;27;44640;-75
2022/02/14 05:48:57;;;;;;;;;0.00;0.00;;;;;9.45;78.42;99765.56;5122843;27;45466;-73
2022/02/14 05:51:23;;;;;;;;;0.00;0.00;;;;;9.51;78.38;99772.75;5123643;27;46281;-75
2022/02/14 05:53:48;;;;;;;;;0.00;0.00;;;;;9.54;78.32;99774.19;5135201;27;45239;-74
2022/02/14 05:56:14;;;;;;;;;0.00;0.00;;;;;9.50;78.08;99781.75;5135956;27;44594;-76
2022/02/14 05:58:40;;;;;;;;;0.00;0.00;;;;;9.44;77.77;99772.72;5125074;27;45377;-75
2022/02/14 06:01:06;;;;;;;;;0.00;0.00;;;;;9.43;78.37;99779.00;5126411;27;45435;-74
2022/02/14 06:03:31;;;;;;;;;1.67;1.00;;;;;9.51;78.43;99801.94;5122857;27;45263;-80
2022/02/14 06:05:56;;;;;;;;;1.33;0.33;;;;;9.46;78.80;99794.56;5120588;27;45306;-79
2022/02/14 06:08:22;;;;;;;;;0.33;0.00;;;;;9.43;78.81;99802.88;5101691;27;46216;-79
2022/02/14 06:10:47;;;;;;;;;0.00;0.00;;;;;9.40;79.02;99802.47;5120019;27;46085;-79
2022/02/14 06:13:13;;;;;;;;;0.67;0.00;;;;;9.29;78.40;99787.88;5101463;27;45398;-79
2022/02/14 06:15:38;;;;;;;;;0.00;0.00;;;;;9.44;78.71;99815.16;5101653;27;45619;-79
2022/02/14 06:18:04;;;;;;;;;0.00;0.00;;;;;9.30;78.88;99803.59;5111336;27;45441;-80
2022/02/14 06:20:29;;;;;;;;;0.00;0.00;;;;;9.33;78.67;99807.69;5080851;27;47404;-79
2022/02/14 06:22:54;;;;;;;;;2.00;0.00;;;;;9.32;78.88;99816.66;5083413;27;45291;-79
2022/02/14 06:25:20;;;;;;;;;0.00;0.00;;;;;9.26;78.68;99823.53;5083274;27;45320;-78
2022/02/14 06:27:45;;;;;;;;;0.00;0.00;;;;;9.18;78.66;99821.81;5082609;27;47468;-79
2022/02/14 06:30:12;;;;;;;;;0.00;0.00;;;;;9.24;78.89;99845.94;5101681;27;45424;-79
2022/02/14 06:32:37;;;;;;;;;1.00;0.00;;;;;9.20;78.26;99853.44;5101586;27;45314;-79
2022/02/14 06:35:04;;;;;;;;;0.00;0.00;;;;;9.14;78.18;99854.19;5082935;27;45328;-79
2022/02/14 06:37:29;;;;;;;;;0.00;0.00;;;;;9.09;79.03;99863.53;5083070;27;47085;-79
2022/02/14 06:39:55;;;;;;;;;0.00;0.00;;;;;8.90;78.89;99846.38;5101287;27;45219;-79
2022/02/14 06:42:20;;;;;;;;;0.00;0.00;;;;;8.90;78.69;99864.94;5101623;27;45178;-79
2022/02/14 06:44:45;;;;;;;;;0.00;0.00;;;;;8.90;79.26;99880.00;5083120;27;45244;-79
2022/02/14 06:47:11;;;;;;;;;0.00;0.00;;;;;8.70;78.87;99862.00;5101506;27;45250;-78
2022/02/14 06:49:36;;;;;;;;;0.67;0.67;;;;;8.70;79.38;99873.44;5082633;27;47393;-79
2022/02/14 06:52:02;;;;;;;;;0.33;0.33;;;;;8.61;79.62;99863.94;5083011;27;45269;-79
2022/02/14 06:54:28;;;;;;;;;0.33;0.00;;;;;8.55;79.33;99865.50;5101451;27;45241;-79
2022/02/14 06:56:53;;;;;;;;;0.33;0.33;;;;;8.57;79.69;99875.91;5101044;27;45152;-79
2022/02/14 06:59:19;;;;;;;;;1.00;1.00;;;;;8.57;79.65;99874.09;5082849;27;47045;-78
2022/02/14 07:01:44;;;;;;;;;0.00;0.00;;;;;8.54;79.51;99876.28;5082796;27;45336;-79
2022/02/14 07:04:10;;;;;;;;;0.00;0.00;;;;;8.53;79.64;99880.72;5082868;27;45331;-79
2022/02/14 07:06:35;;;;;;;;;2.00;0.00;;;;;8.54;79.97;99884.22;5082500;27;46067;-78
2022/02/14 07:09:01;;;;;;;;;0.00;0.00;;;;;8.49;79.47;99875.94;5100878;27;45301;-79
2022/02/14 07:11:27;;;;;;;;;3.00;2.00;;;;;8.33;79.47;99859.25;5094571;27;45369;-78
2022/02/14 07:13:52;;;;;;;;;1.00;1.00;;;;;8.32;79.59;99866.34;5098947;27;45458;-79
2022/02/14 07:16:18;;;;;;;;;1.00;1.00;;;;;8.29;79.59;99882.59;5082397;27;45904;-78
2022/02/14 07:18:43;;;;;;;;;1.33;1.00;;;;;8.34;79.77;99882.06;5100262;27;45467;-79
2022/02/14 07:21:08;;;;;;;;;1.00;1.00;;;;;8.24;80.07;99884.97;5080637;27;45401;-79
2022/02/14 07:23:34;;;;;;;;;1.00;1.00;;;;;8.30;79.76;99901.97;5082457;27;45343;-78
2022/02/14 07:25:59;;;;;;;;;0.00;0.00;;;;;8.23;80.32;99893.09;5100018;27;45275;-79
2022/02/14 07:28:25;;;;;;;;;0.00;0.00;;;;;8.16;79.81;99892.97;5100619;27;45551;-79
2022/02/14 07:30:50;;;;;;;;;1.00;1.00;;;;;8.28;80.70;99917.19;5097928;27;45567;-79
2022/02/14 07:33:15;;;;;;;;;1.33;1.00;;;;;8.17;80.61;99908.69;5100650;27;45282;-78
2022/02/14 07:35:41;;;;;;;;;0.67;0.67;;;;;8.28;80.42;99930.44;5099948;27;45232;-79
2022/02/14 07:38:06;;;;;;;;;0.00;0.00;;;;;8.20;80.01;99913.63;5081733;27;47311;-79
2022/02/14 07:40:32;;;;;;;;;1.00;1.00;;;;;8.16;80.36;99914.16;5100419;27;45331;-79
2022/02/14 07:42:58;;;;;;;;;1.00;1.00;;;;;8.27;80.47;99931.44;5082301;27;45534;-79
2022/02/14 07:45:23;;;;;;;;;1.00;1.00;;;;;8.16;80.59;99924.75;5100335;27;45150;-79
2022/02/14 07:47:49;;;;;;;;;1.00;1.00;;;;;8.20;80.46;99931.31;5100349;27;45531;-79
2022/02/14 07:50:15;;;;;;;;;2.00;2.00;;;;;8.22;80.64;99937.28;5099564;27;45484;-79
2022/02/14 07:52:41;;;;;;;;;3.00;3.00;;;;;8.17;80.66;99927.22;5082018;27;45314;-78
2022/02/14 07:55:07;;;;;;;;;2.00;2.00;;;;;8.15;80.17;99917.81;5081489;27;45473;-79
2022/02/14 07:57:32;;;;;;;;;3.00;1.33;;;;;8.29;80.58;99937.41;5100288;27;46226;-78
2022/02/14 07:59:59;;;;;;;;;5.33;2.00;;;;;8.28;80.17;99946.31;5100191;27;45337;-78
2022/02/14 08:02:24;;;;;;;;;1.67;1.67;;;;;8.15;79.84;99921.28;5100272;27;45275;-79
2022/02/14 08:04:50;;;;;;;;;2.00;2.00;;;;;8.21;79.96;99936.44;5081445;27;47283;-79
2022/02/14 08:07:15;;;;;;;;;2.00;2.00;;;;;8.28;80.38;99956.91;5099344;27;45999;-78
2022/02/14 08:09:41;;;;;;;;;1.00;1.00;;;;;8.31;80.75;99964.50;5100159;27;45267;-78
2022/02/14 08:12:08;;;;;;;;;2.00;1.00;;;;;8.32;80.55;99964.31;5081845;27;45306;-79
2022/02/14 08:14:34;;;;;;;;;3.00;3.00;;;;;8.33;80.76;99965.16;5100049;27;45427;-79
2022/02/14 08:17:00;;;;;;;;;2.00;2.00;;;;;8.35;80.38;99979.03;5096337;27;46162;-80
2022/02/14 08:19:26;;;;;;;;;1.67;1.67;;;;;8.32;80.54;99969.63;5081072;27;45564;-78
2022/02/14 08:21:51;;;;;;;;;2.00;2.00;;;;;8.34;80.18;99978.22;5100198;27;45874;-79
2022/02/14 08:24:16;;;;;;;;;1.00;1.00;;;;;8.40;80.30;99983.78;5099959;27;45299;-79
2022/02/14 08:26:42;;;;;;;;;2.67;2.00;;;;;8.46;80.77;99989.19;5081277;27;48069;-79
2022/02/14 08:29:08;;;;;;;;;2.00;2.00;;;;;8.39;80.32;99993.56;5081578;27;45338;-78
2022/02/14 08:31:34;;;;;;;;;2.33;1.67;;;;;8.36;80.59;99972.75;5081612;27;45311;-79
2022/02/14 08:33:59;;;;;;;;;1.67;1.67;;;;;8.43;80.30;99989.56;5081569;27;46124;-79
2022/02/14 08:36:25;;;;;;;;;2.00;2.00;;;;;8.43;79.65;99984.25;5080460;27;46923;-79
2022/02/14 08:38:52;;;;;;;;;2.00;2.00;;;;;8.46;79.35;99994.50;5099720;27;45428;-78
2022/02/14 08:41:17;;;;;;;;;1.67;1.67;;;;;8.53;79.16;99997.25;5090712;27;45271;-79
2022/02/14 08:43:43;;;;;;;;;1.00;1.00;;;;;8.53;78.86;99993.78;5082772;28;45442;-78
2022/02/14 08:46:08;;;;;;;;;1.67;1.67;;;;;8.53;78.94;99999.09;5082886;28;45252;-79
2022/02/14 08:48:34;;;;;;;;;1.00;1.00;;;;;8.64;78.62;100014.56;5064483;28;45389;-77
2022/02/14 08:50:59;;;;;;;;;1.00;1.00;;;;;8.67;78.79;100018.69;5082679;28;45284;-78
2022/02/14 08:53:25;;;;;;;;;1.33;1.33;;;;;8.68;78.67;99997.31;5064378;28;46119;-79
2022/02/14 08:55:51;;;;;;;;;2.67;1.33;;;;;8.74;78.91;100011.66;5082130;28;46238;-79
2022/02/14 08:58:16;;;;;;;;;3.00;3.00;;;;;8.70;78.53;100007.72;5064223;28;45336;-77
2022/02/14 09:00:42;;;;;;;;;2.00;2.00;;;;;8.70;78.65;100005.91;5082671;28;45347;-76
2022/02/14 09:03:07;;;;;;;;;2.00;2.00;;;;;8.82;78.46;100011.59;5081805;28;45594;-76
2022/02/14 09:05:33;;;;;;;;;1.67;1.67;;;;;8.78;78.54;100009.47;5082356;28;45855;-76
2022/02/14 09:07:58;;;;;;;;;1.67;1.33;;;;;8.81;78.91;100006.47;5082360;28;45331;-76
2022/02/14 09:10:24;;;;;;;;;1.00;1.00;;;;;8.87;78.86;100015.53;5082523;28;45303;-78
2022/02/14 09:12:50;;;;;;;;;0.00;0.00;;;;;8.96;78.24;100020.56;5080935;28;45509;-80
2022/02/14 09:15:16;;;;;;;;;3.00;1.67;;;;;9.03;78.22;100019.81;5061328;28;47291;-76
2022/02/14 09:17:42;;;;;;;;;2.00;1.00;;;;;9.09;78.21;100030.53;5084502;27;45521;-76
2022/02/14 09:20:09;;;;;;;;;2.00;2.00;;;;;9.09;78.61;100019.09;5081897;27;45497;-77
2022/02/14 09:22:34;;;;;;;;;1.00;1.00;;;;;9.19;78.59;100034.75;5071880;28;47191;-76
2022/02/14 09:25:00;;;;;;;;;2.00;2.00;;;;;9.17;78.42;100020.84;5081479;28;45299;-77
2022/02/14 09:27:25;;;;;;;;;4.00;2.00;;;;;9.23;78.39;100009.53;5081935;28;45364;-77
2022/02/14 09:29:51;;;;;;;;;1.33;1.33;;;;;9.32;78.29;100007.59;5082325;28;45463;-77
2022/02/14 09:32:16;;;;;;;;;3.00;3.00;;;;;9.43;78.28;100023.03;5078691;28;45472;-77
2022/02/14 09:34:43;;;;;;;;;4.00;3.00;;;;;9.49;77.70;100036.56;5073071;28;46124;-77
2022/02/14 09:37:10;;;;;;;;;2.00;2.00;;;;;9.46;77.51;100025.31;5094057;27;45256;-77
2022/02/14 09:39:36;;;;;;;;;3.00;2.00;;;;;9.60;77.89;100042.22;5104118;27;45252;-77
2022/02/14 09:42:03;;;;;;;;;3.67;2.00;;;;;9.69;78.02;100037.63;5103121;27;45430;-76
2022/02/14 09:44:28;;;;;;;;;1.00;1.00;;;;;9.70;77.52;100031.31;5103091;27;46176;-76
2022/02/14 09:46:54;;;;;;;;;3.33;3.33;;;;;9.80;77.04;100035.50;5102984;27;45349;-79
2022/02/14 09:49:20;;;;;;;;;1.00;1.00;;;;;9.82;76.92;100054.75;5084316;27;45347;-77
2022/02/14 09:51:46;;;;;;;;;2.00;2.00;;;;;9.78;76.97;100043.66;5102544;27;45321;-77
2022/02/14 09:54:12;;;;;;;;;2.33;1.67;;;;;9.71;76.46;100040.94;5102496;27;46351;-78
2022/02/14 09:56:37;;;;;;;;;2.33;2.33;;;;;9.78;76.76;100058.75;5083643;27;45316;-78
2022/02/14 09:59:10;;;;;;;;;2.67;2.67;;;;;9.80;76.47;100078.81;5104368;27;45429;-78
2022/02/14 10:01:35;;;;;;;;;1.33;1.33;;;;;9.82;76.35;100075.97;5104450;27;45422;-77
2022/02/14 10:04:01;;;;;;;;;3.00;2.00;;;;;9.82;76.82;100071.47;5103045;27;46690;-78
2022/02/14 10:06:31;;;;;;;;;2.00;2.00;;;;;9.73;76.18;100046.88;5103231;27;45359;-76
2022/02/14 10:09:22;;;;;;;;;4.00;4.00;;;;;9.88;76.52;100069.94;5102616;27;45265;-76
2022/02/14 10:12:12;;;;;;;;;2.00;2.00;;;;;9.85;76.23;100054.38;5101960;27;45262;-76
2022/02/14 10:14:39;;;;;;;;;5.00;3.00;;;;;10.01;75.96;100081.69;5083361;27;48433;-75
2022/02/14 10:17:14;;;;;;;;;3.00;3.00;;;;;9.94;75.74;100055.09;5101856;27;45332;-78
2022/02/14 10:20:02;;;;;;;;;3.67;2.00;;;;;10.06;75.94;100084.63;5081834;28;45462;-76
2022/02/14 10:22:28;;;;;;;;;6.00;2.33;;;;;10.06;76.16;100082.78;5081451;28;45359;-76
2022/02/14 10:24:54;;;;;;;;;4.00;2.67;;;;;10.08;75.65;100054.22;5062945;28;46434;-76
2022/02/14 10:27:31;;;;;;;;;1.67;1.67;;;;;10.22;75.76;100072.94;5081068;28;45162;-76
2022/02/14 10:30:10;;;;;;;;;2.00;2.00;;;;;10.22;75.72;100064.97;5081386;28;45299;-76
2022/02/14 10:32:49;;;;;;;;;4.00;4.00;;;;;10.38;75.68;100079.84;5081209;28;45427;-75
2022/02/14 10:35:14;;;;;;;;;4.33;4.00;;;;;10.48;75.23;100075.06;5062364;28;48163;-75
2022/02/14 10:37:42;;;;;;;;;6.00;3.00;;;;;10.60;75.13;100087.84;5080940;28;45257;-76
2022/02/14 10:40:10;;;;;;;;;3.67;3.67;;;;;10.62;75.00;100087.66;5063020;28;45313;-76
2022/02/14 10:42:37;;;;;;;;;2.33;2.00;;;;;10.72;74.11;100102.25;5081051;28;45319;-75
2022/02/14 10:45:08;;;;;;;;;5.67;3.00;;;;;10.75;73.16;100092.28;5080919;27;46096;-76
2022/02/14 10:47:36;;;;;;;;;3.33;2.67;;;;;10.70;73.79;100090.19;5081216;27;45450;-76
2022/02/14 10:50:11;;;;;;;;;2.00;2.00;;;;;10.79;73.39;100090.88;5079665;28;45389;-76
2022/02/14 10:52:46;;;;;;;;;5.00;3.00;;;;;10.81;73.69;100094.97;5079473;28;45402;-76
2022/02/14 10:55:18;;;;;;;;;4.67;3.67;;;;;10.73;73.01;100095.13;5080496;27;45301;-76
2022/02/14 10:57:46;;;;;;;;;2.67;2.67;;;;;10.71;72.91;100105.94;5081062;27;45273;-76
2022/02/14 11:00:17;;;;;;;;;3.00;2.33;;;;;10.67;72.99;100095.88;5081000;27;45296;-76
2022/02/14 11:02:46;;;;;;;;;2.67;2.67;;;;;10.60;72.84;100093.16;5079221;28;47026;-75
2022/02/14 11:05:13;;;;;;;;;4.00;3.33;;;;;10.56;72.14;100082.09;5079015;28;47428;-75
2022/02/14 11:07:40;;;;;;;;;2.33;1.67;;;;;10.60;72.02;100085.19;5079356;28;45285;-76
2022/02/14 11:10:12;;;;;;;;;4.67;3.00;;;;;10.57;72.72;100085.56;5080753;28;45503;-76
2022/02/14 11:12:57;;;;;;;;;4.00;3.67;;;;;10.60;73.03;100080.69;5079204;28;46270;-76
2022/02/14 11:15:28;;;;;;;;;7.00;6.00;;;;;10.66;72.96;100057.03;5080380;28;45609;-76
2022/02/14 11:17:57;;;;;;;;;14.67;14.33;;;;;10.79;72.54;100040.38;5091813;27;45260;-76
2022/02/14 11:20:23;;;;;;;;;5.33;5.33;;;;;10.89;72.66;100040.84;5121471;27;45352;-75
2022/02/14 11:22:50;;;;;;;;;5.67;5.00;;;;;10.98;70.16;100047.66;5121489;27;45459;-76
2022/02/14 11:25:32;;;;;;;;;5.67;5.00;;;;;10.96;71.20;100033.72;5120010;27;47214;-76
2022/02/14 11:28:34;;;;;;;;;2.00;2.00;;;;;11.30;71.11;100063.22;5121189;27;45252;-76
2022/02/14 11:31:18;;;;;;;;;3.00;3.00;;;;;11.43;69.74;100049.16;5121505;27;45304;-75